首页
METAR-TAF:

METAR-TAF

机场 :

伊基托斯, 秘鲁

纬度: 03-45S, 经度: 073-15W, 海拔: 125米

当前天气观测

该预报发布于11分钟前的06:00 UTC
静风
温度 24°C
湿度 94%
气压 1013 hPa
能见度10公里或以上
1500米以下无云,无积雨云

METAR: SPQT 230600Z 00000KT CAVOK 24/23 Q1013 NOSIG RMK PP000

时间: 01:11 (06:11 UTC)

预报

该预报发布于1小时和11分钟前的05:00 UTC
预报有效从23日的 06点(UTC)到 24日的 06点(UTC)
风速节,风向
能见度10公里或以上
1500米以下无云,无积雨云
短暂存在
从 23日的 10点(UTC)到 23日的 12点(UTC)
风速2节,风向多变
能見度: 5000
散云层高于800英尺
散云层高于10000英尺
轻雾
成为
从 23日的 13点(UTC)到 23日的 15点(UTC)
风速3节,风向
能见度10公里或以上
多云层高于2000英尺
散云层高于10000英尺
短暂存在
从 23日的 23点(UTC)到 24日的 02点(UTC)
风速5节,风向东转东北
能見度: 5000
多云层高于1200英尺
少量云层高于2000英尺, 塔状积云.
阵雨

TAF: SPQT 230500Z 2306/2406 00000KT CAVOK TX33/2319Z TN23/2311Z TEMPO 2310/2312 VRB02KT 5000 BR SCT008 SCT100 BECMG 2313/2315 01003KT 9999 BKN020 SCT100 TEMPO 2323/2402 07005KT 5000 SHRA BKN012 FEW020TCU

超过4000个机场的气象观测和天气预报(METAR&TAF报告)。

可查询的气象台以黄色和红色小点在地图上表示。

将鼠标移到小点上方,可查看气象台名称。

然后点击查看天气观测和预报。

如需切换地图:点击带黑十字的绿色按钮放大地图;点击带横线的绿色按钮缩小地图;或者点击绿色箭头查看邻近地区的地图。


METAR-TAF: